createdAt,value
2018-12-22T05:02:01.346Z,90.20
2018-12-22T05:04:30.219Z,90.10
2018-12-22T05:06:58.631Z,89.70
2018-12-22T05:09:27.178Z,89.00
2018-12-22T05:11:55.519Z,88.40
2018-12-22T05:14:26.858Z,88.60
2018-12-22T05:16:55.656Z,89.40
2018-12-22T05:19:25.738Z,88.80
2018-12-22T05:21:54.122Z,90.20
2018-12-22T05:24:22.479Z,89.10
2018-12-22T05:26:51.255Z,88.50
2018-12-22T05:29:19.711Z,88.80
2018-12-22T05:31:48.691Z,89.30
2018-12-22T05:34:18.251Z,89.00
2018-12-22T05:36:46.686Z,89.50
2018-12-22T05:39:15.005Z,90.10
2018-12-22T05:41:43.375Z,90.20
2018-12-22T05:44:11.733Z,90.00
2018-12-22T05:46:40.115Z,89.80
2018-12-22T05:49:09.083Z,90.20
2018-12-22T05:51:37.720Z,90.00
2018-12-22T05:54:07.154Z,89.80
2018-12-22T05:56:36.365Z,89.70
2018-12-22T05:59:06.765Z,90.00
2018-12-22T06:01:36.859Z,90.00
2018-12-22T06:04:08.987Z,89.50
2018-12-22T06:06:37.417Z,90.60
2018-12-22T06:09:06.464Z,90.50
2018-12-22T06:11:34.854Z,90.80
2018-12-22T06:14:03.637Z,90.00
2018-12-22T06:16:32.003Z,90.20
2018-12-22T06:19:00.551Z,90.30
2018-12-22T06:21:30.082Z,90.00
2018-12-22T06:24:01.444Z,90.10
2018-12-22T06:26:30.653Z,90.00
2018-12-22T06:28:59.589Z,91.00
2018-12-22T06:31:27.997Z,91.20
2018-12-22T06:33:56.377Z,90.60
2018-12-22T06:36:25.506Z,90.50
2018-12-22T06:38:53.918Z,90.70
2018-12-22T06:41:22.250Z,90.70
2018-12-22T06:43:50.719Z,90.50
2018-12-22T06:46:19.401Z,89.80
2018-12-22T06:48:48.974Z,89.10
2018-12-22T06:51:18.222Z,88.10
2018-12-22T06:53:46.478Z,88.70
2018-12-22T06:56:17.685Z,89.10
2018-12-22T06:58:46.490Z,88.00
2018-12-22T07:01:15.813Z,87.30
2018-12-22T07:03:44.232Z,88.00
2018-12-22T07:06:13.122Z,87.80
2018-12-22T07:08:41.516Z,87.80
2018-12-22T07:11:11.369Z,86.90
2018-12-22T07:13:40.407Z,86.90
2018-12-22T07:16:08.938Z,87.00
2018-12-22T07:18:42.163Z,85.80
2018-12-22T07:21:11.355Z,85.00
2018-12-22T07:23:41.659Z,84.20
2018-12-22T07:26:10.861Z,84.20
2018-12-22T07:28:41.322Z,84.50
2018-12-22T07:31:10.003Z,84.20
2018-12-22T07:33:39.043Z,83.80
2018-12-22T07:36:07.592Z,83.50
2018-12-22T07:38:36.063Z,83.80
2018-12-22T07:41:05.445Z,84.00
2018-12-22T07:43:33.833Z,84.00
2018-12-22T07:46:02.228Z,83.80
2018-12-22T07:48:32.268Z,83.70
2018-12-22T07:51:00.648Z,84.10
2018-12-22T07:53:29.729Z,83.70
2018-12-22T07:55:59.835Z,83.80
2018-12-22T07:58:28.998Z,84.30
2018-12-22T08:00:57.391Z,84.50
2018-12-22T08:03:26.284Z,85.60
2018-12-22T08:05:54.704Z,86.00
2018-12-22T08:08:23.739Z,86.30
2018-12-22T08:10:52.278Z,86.50
2018-12-22T08:13:22.241Z,86.30
2018-12-22T08:15:50.635Z,86.30
2018-12-22T08:18:19.492Z,86.50
2018-12-22T08:20:50.961Z,86.20
2018-12-22T08:23:19.684Z,86.20
2018-12-22T08:25:48.058Z,86.50
2018-12-22T08:28:16.816Z,86.70
2018-12-22T08:30:45.687Z,86.70
2018-12-22T08:33:14.055Z,86.90
2018-12-22T08:35:42.380Z,86.80
2018-12-22T08:38:10.824Z,87.70
2018-12-22T08:40:44.736Z,88.30
2018-12-22T08:43:13.116Z,88.80
2018-12-22T08:45:41.493Z,89.00
2018-12-22T08:48:09.886Z,90.40
2018-12-22T08:50:38.223Z,90.60
2018-12-22T08:53:07.192Z,90.70
2018-12-22T08:55:38.158Z,91.00
2018-12-22T08:58:08.035Z,91.40
2018-12-22T09:00:37.968Z,91.00
2018-12-22T09:03:08.479Z,91.10
2018-12-22T09:05:36.855Z,90.10
2018-12-22T09:08:07.527Z,89.50
2018-12-22T09:10:35.985Z,89.50
2018-12-22T09:13:04.459Z,88.80
2018-12-22T09:15:32.828Z,88.80
2018-12-22T09:18:01.731Z,88.50
2018-12-22T09:20:31.850Z,88.80
2018-12-22T09:23:06.667Z,90.10
2018-12-22T09:25:39.123Z,89.70
2018-12-22T09:28:09.283Z,89.60
2018-12-22T09:30:39.297Z,90.00
2018-12-22T09:33:08.033Z,89.60
2018-12-22T09:35:38.219Z,89.20
2018-12-22T09:38:06.572Z,88.20
2018-12-22T09:40:36.069Z,85.10
2018-12-22T09:43:05.738Z,84.10
2018-12-22T09:45:48.369Z,81.30
2018-12-22T09:48:16.783Z,75.10
2018-12-22T09:50:45.628Z,68.60
2018-12-22T09:53:14.379Z,71.90
2018-12-22T09:55:43.864Z,70.60
2018-12-22T09:58:12.953Z,75.50
2018-12-22T10:00:42.470Z,79.10
2018-12-22T10:03:11.674Z,80.00
2018-12-22T10:05:45.008Z,80.50
2018-12-22T10:08:14.252Z,79.50
2018-12-22T10:10:56.729Z,80.00
2018-12-22T10:13:25.447Z,80.00
2018-12-22T10:15:53.792Z,79.50
2018-12-22T10:18:22.857Z,78.80
2018-12-22T10:20:52.415Z,80.10
2018-12-22T10:23:21.818Z,80.10
2018-12-22T10:25:52.003Z,80.60
2018-12-22T10:28:20.715Z,80.70
2018-12-22T10:30:49.814Z,80.90
2018-12-22T10:33:19.161Z,81.70
2018-12-22T10:35:51.393Z,82.10
2018-12-22T10:38:20.414Z,82.30
2018-12-22T10:40:51.328Z,82.10
2018-12-22T10:43:19.785Z,81.70
2018-12-22T10:45:48.287Z,81.20
2018-12-22T10:48:16.994Z,80.90
2018-12-22T10:50:45.656Z,81.70
2018-12-22T10:53:15.090Z,80.10
2018-12-22T10:55:45.994Z,79.70
2018-12-22T10:58:16.530Z,79.10
2018-12-22T11:00:47.180Z,79.00
2018-12-22T11:03:18.853Z,78.50
2018-12-22T11:05:47.194Z,76.90
2018-12-22T11:08:18.000Z,75.00
2018-12-22T11:10:47.352Z,70.00
2018-12-22T11:13:16.836Z,70.60
2018-12-22T11:15:45.587Z,74.20
2018-12-22T11:18:13.981Z,75.90
2018-12-22T11:20:42.416Z,76.80
2018-12-22T11:23:20.460Z,77.90
2018-12-22T11:25:45.881Z,78.30
2018-12-22T11:28:15.735Z,78.20
2018-12-22T11:30:45.400Z,78.30
2018-12-22T11:33:15.678Z,79.50
2018-12-22T11:38:35.653Z,78.40
2018-12-22T11:41:04.212Z,78.10
2018-12-22T11:43:35.120Z,78.50
2018-12-22T11:46:04.436Z,76.10
2018-12-22T11:49:42.070Z,77.20
2018-12-22T11:52:14.917Z,77.50
2018-12-22T11:54:43.964Z,77.50
2018-12-22T11:57:12.275Z,76.80
2018-12-22T11:59:40.694Z,76.10
2018-12-22T12:02:10.200Z,76.20
2018-12-22T12:04:42.036Z,73.00
2018-12-22T12:07:10.481Z,56.20
2018-12-22T12:09:39.638Z,50.60
2018-12-22T12:12:10.380Z,52.50
2018-12-22T12:14:39.294Z,51.00
2018-12-22T12:17:23.934Z,52.20
2018-12-22T12:19:52.411Z,47.40
2018-12-22T12:22:22.035Z,50.60
2018-12-22T12:24:50.459Z,51.40
2018-12-22T12:27:20.677Z,52.60
2018-12-22T12:29:49.890Z,49.60
2018-12-22T12:32:19.066Z,47.20
2018-12-22T12:34:48.005Z,52.60
2018-12-22T12:37:16.405Z,46.60
2018-12-22T12:39:44.996Z,51.70
2018-12-22T12:42:14.137Z,53.00
2018-12-22T12:44:43.297Z,57.90
2018-12-22T12:47:12.344Z,55.00
2018-12-22T12:49:42.357Z,54.10
2018-12-22T12:52:10.702Z,55.70
2018-12-22T12:54:50.017Z,51.50
2018-12-22T12:57:19.804Z,46.00
2018-12-22T12:59:50.085Z,45.10
2018-12-22T13:02:18.908Z,45.00
2018-12-22T13:04:48.978Z,45.20
2018-12-22T13:07:17.884Z,43.10
2018-12-22T13:09:46.214Z,43.60
2018-12-22T13:12:18.649Z,44.80
2018-12-22T13:14:49.537Z,49.00
2018-12-22T13:17:18.214Z,54.30
2018-12-22T13:19:47.985Z,57.00
2018-12-22T13:22:19.201Z,59.40
2018-12-22T13:24:48.151Z,66.90
2018-12-22T13:27:16.572Z,62.50
2018-12-22T13:29:45.111Z,56.80
2018-12-22T13:32:13.425Z,54.20
2018-12-22T13:34:45.222Z,55.20
2018-12-22T13:37:13.618Z,59.40
2018-12-22T13:39:43.594Z,57.20
2018-12-22T13:42:12.930Z,63.40
2018-12-22T13:44:41.359Z,65.30
2018-12-22T13:47:10.165Z,63.70
2018-12-22T13:49:39.422Z,60.50
2018-12-22T13:52:09.656Z,62.20
2018-12-22T13:54:39.872Z,63.30
2018-12-22T13:57:09.980Z,66.60
2018-12-22T13:59:39.687Z,70.00
2018-12-22T14:02:17.986Z,71.70
2018-12-22T14:04:40.110Z,73.10
2018-12-22T14:07:12.148Z,73.90
2018-12-22T14:09:41.195Z,72.90
2018-12-22T14:12:11.169Z,74.60
2018-12-22T14:14:41.366Z,75.50
2018-12-22T14:17:22.860Z,75.90
2018-12-22T14:19:59.070Z,74.60
2018-12-22T14:22:28.521Z,75.20
2018-12-22T14:24:57.989Z,73.90
2018-12-22T14:27:26.452Z,72.40
2018-12-22T14:29:54.651Z,74.00
2018-12-22T14:32:27.025Z,74.40
2018-12-22T14:35:00.741Z,75.70
2018-12-22T14:37:29.473Z,75.70
2018-12-22T14:39:58.777Z,74.60
2018-12-22T14:42:28.558Z,72.10
2018-12-22T14:44:58.286Z,71.00
2018-12-22T14:47:26.743Z,72.20
2018-12-22T14:49:55.237Z,73.80
2018-12-22T14:52:24.098Z,76.90
2018-12-22T14:54:53.587Z,77.60
2018-12-22T14:57:36.520Z,77.70
2018-12-22T15:00:05.415Z,79.30
2018-12-22T15:02:35.415Z,80.50
2018-12-22T15:05:04.170Z,82.00
2018-12-22T15:07:38.269Z,83.60
2018-12-22T15:10:06.809Z,84.10
2018-12-22T15:12:36.656Z,84.70
2018-12-22T15:15:06.880Z,84.30
2018-12-22T15:17:35.289Z,85.50
2018-12-22T15:20:05.282Z,86.30
2018-12-22T15:22:33.623Z,86.70
2018-12-22T15:25:01.960Z,86.60
2018-12-22T15:27:31.321Z,86.90
2018-12-22T15:30:00.537Z,87.50
2018-12-22T15:32:30.676Z,88.10
2018-12-22T15:34:59.744Z,88.60
2018-12-22T15:37:29.435Z,88.50
2018-12-22T15:39:58.512Z,89.50
2018-12-22T15:42:26.959Z,89.50
2018-12-22T15:44:56.980Z,89.90
2018-12-22T15:47:25.401Z,89.60
2018-12-22T15:49:53.780Z,89.80
2018-12-22T15:52:24.498Z,90.30
2018-12-22T15:54:54.693Z,91.10
2018-12-22T15:57:23.443Z,91.30
2018-12-22T15:59:52.655Z,90.60
2018-12-22T16:02:20.973Z,91.20
2018-12-22T16:04:50.869Z,91.50
2018-12-22T16:07:19.345Z,91.30
2018-12-22T16:09:48.808Z,91.40
2018-12-22T16:12:18.409Z,91.00
2018-12-22T16:14:46.840Z,91.20
2018-12-22T16:17:16.003Z,91.70
2018-12-22T16:19:45.912Z,91.70
2018-12-22T16:22:14.283Z,92.10
2018-12-22T16:24:42.712Z,91.90
2018-12-22T16:27:13.920Z,92.10
2018-12-22T16:29:44.567Z,92.10
2018-12-22T16:32:14.830Z,92.40
2018-12-22T16:37:39.120Z,91.70
2018-12-22T16:40:09.551Z,89.40
2018-12-22T16:42:39.929Z,91.90
2018-12-22T16:45:11.594Z,91.90
2018-12-22T16:47:40.220Z,92.40
2018-12-22T16:50:11.072Z,92.80
2018-12-22T16:52:39.962Z,92.50
2018-12-22T16:55:10.829Z,92.10
2018-12-22T17:00:51.536Z,92.60
2018-12-22T17:03:19.951Z,92.90
2018-12-22T17:05:49.571Z,93.10
2018-12-22T17:08:18.937Z,93.70
2018-12-22T17:10:50.759Z,93.70
2018-12-22T17:13:21.441Z,94.00
2018-12-22T17:15:55.878Z,94.30
2018-12-22T17:18:26.735Z,94.30
2018-12-22T17:21:02.093Z,94.30
2018-12-22T17:24:00.478Z,94.30
2018-12-22T17:26:42.577Z,94.20
2018-12-22T17:29:10.926Z,94.00
2018-12-22T17:31:44.731Z,93.40
2018-12-22T17:34:25.385Z,93.00
2018-12-22T17:36:54.289Z,93.10
2018-12-22T17:39:22.653Z,93.70
2018-12-22T17:41:51.196Z,95.00
2018-12-22T17:44:20.179Z,95.10
2018-12-22T17:46:48.615Z,96.30
2018-12-22T17:49:20.583Z,95.70
2018-12-22T17:51:49.895Z,96.00
2018-12-22T17:54:30.228Z,97.80
2018-12-22T17:56:58.709Z,97.70
2018-12-22T17:59:27.709Z,98.10
2018-12-22T18:01:57.181Z,98.20
2018-12-22T18:04:26.841Z,98.20
2018-12-22T18:06:59.729Z,99.50
2018-12-22T18:09:37.696Z,99.40
2018-12-22T18:12:06.043Z,98.90
2018-12-22T18:14:35.732Z,99.10
2018-12-22T18:17:04.110Z,98.70
2018-12-22T18:19:32.522Z,99.50
2018-12-22T18:22:00.867Z,99.90
2018-12-22T18:24:29.987Z,99.90
2018-12-22T18:26:58.486Z,99.90
2018-12-22T18:29:27.484Z,99.70
2018-12-22T18:32:03.066Z,99.30
2018-12-22T18:34:34.804Z,99.50
2018-12-22T18:37:03.126Z,99.90
2018-12-22T18:39:32.993Z,99.90
2018-12-22T18:42:01.416Z,99.40
2018-12-22T18:44:31.625Z,99.70
2018-12-22T18:47:00.768Z,99.90
2018-12-22T18:49:29.842Z,99.90
2018-12-22T18:52:00.179Z,99.90
2018-12-22T18:54:29.149Z,98.90
2018-12-22T18:56:59.598Z,98.40
2018-12-22T18:59:29.438Z,98.10
2018-12-22T19:01:59.115Z,98.10
2018-12-22T19:04:27.624Z,98.00
2018-12-22T19:06:58.154Z,98.60
2018-12-22T19:09:29.328Z,99.00
2018-12-22T19:11:59.547Z,99.90
2018-12-22T19:14:29.193Z,99.90
2018-12-22T19:16:59.816Z,99.90
2018-12-22T19:19:34.696Z,99.90
2018-12-22T19:22:11.096Z,99.90
2018-12-22T19:24:41.559Z,99.90
2018-12-22T19:27:12.824Z,99.90
2018-12-22T19:29:41.205Z,99.90
2018-12-22T19:32:09.639Z,99.90
2018-12-22T19:34:39.250Z,99.90
2018-12-22T19:37:08.587Z,99.90
2018-12-22T19:39:42.509Z,99.90
2018-12-22T19:42:11.483Z,99.90
2018-12-22T19:44:41.414Z,99.90
2018-12-22T19:47:11.980Z,99.90
2018-12-22T19:49:49.339Z,99.90
2018-12-22T19:52:18.885Z,99.90
2018-12-22T19:54:53.615Z,99.90
2018-12-22T19:57:24.492Z,99.90
2018-12-22T19:59:59.173Z,99.90
2018-12-22T20:02:33.845Z,99.90
2018-12-22T20:05:02.340Z,99.90
2018-12-22T20:07:31.695Z,99.90
2018-12-22T20:10:00.624Z,99.90
